Time;durP1;ratioP1;P1;durP2;ratioP2;P2;SDS_P1;SDS_P2;PMS_P1;PMS_P2;Temp;Humidity;BMP_temperature;BMP_pressure;BME280_temperature;BME280_humidity;BME280_pressure;Samples;Min_cycle;Max_cycle;Signal;HPM_P1;HPM_P2
2023/12/02 00:01:42;;;;;;;;;27.75;22.50;;;;;4.75;58.57;100459.53;5074830;28;45462;-65
2023/12/02 00:04:07;;;;;;;;;24.00;23.25;;;;;4.67;59.19;100453.47;5063241;28;47865;-66
2023/12/02 00:06:32;;;;;;;;;29.00;24.50;;;;;4.73;58.81;100466.63;5066663;28;45999;-66
2023/12/02 00:08:58;;;;;;;;;25.25;19.25;;;;;4.69;58.95;100458.72;5080162;27;45339;-65
2023/12/02 00:11:23;;;;;;;;;26.25;21.00;;;;;4.62;59.44;100442.94;5072843;28;64231;-65
2023/12/02 00:13:48;;;;;;;;;25.50;21.50;;;;;4.70;58.70;100460.50;5081648;28;45501;-65
2023/12/02 00:16:14;;;;;;;;;27.00;21.50;;;;;4.66;58.88;100442.91;5079410;28;67479;-65
2023/12/02 00:18:39;;;;;;;;;29.50;26.25;;;;;4.71;58.45;100451.66;5081878;27;45392;-65
2023/12/02 00:21:05;;;;;;;;;24.50;22.25;;;;;4.77;58.83;100460.38;5065228;27;45691;-65
2023/12/02 00:23:31;;;;;;;;;16.75;15.50;;;;;4.80;58.88;100455.06;5061225;28;46483;-65
2023/12/02 00:25:56;;;;;;;;;28.75;25.00;;;;;4.85;58.96;100462.06;5075573;28;45429;-65
2023/12/02 00:28:21;;;;;;;;;24.50;20.75;;;;;4.80;59.10;100452.41;5080072;27;45626;-65
2023/12/02 00:30:47;;;;;;;;;28.75;24.00;;;;;4.87;58.71;100458.50;5062319;28;45535;-65
2023/12/02 00:33:13;;;;;;;;;29.75;23.75;;;;;4.90;59.72;100454.94;5081415;27;46189;-65
2023/12/02 00:35:38;;;;;;;;;31.00;23.50;;;;;4.98;58.85;100461.00;5079824;28;45385;-65
2023/12/02 00:38:04;;;;;;;;;20.50;14.75;;;;;4.98;59.08;100471.59;5068042;28;45406;-65
2023/12/02 00:40:29;;;;;;;;;28.00;23.75;;;;;4.98;58.51;100466.28;5081110;27;45374;-65
2023/12/02 00:42:54;;;;;;;;;29.75;25.00;;;;;4.97;57.94;100464.53;5081008;27;45479;-65
2023/12/02 00:45:20;;;;;;;;;26.25;23.00;;;;;4.99;58.53;100473.31;5081130;27;45306;-65
2023/12/02 00:47:45;;;;;;;;;32.50;25.00;;;;;5.00;57.89;100464.50;5070255;27;45346;-65
2023/12/02 00:50:10;;;;;;;;;19.00;18.50;;;;;4.98;58.80;100464.50;5080940;27;45377;-65
2023/12/02 00:52:36;;;;;;;;;30.75;28.25;;;;;4.86;58.55;100446.19;5080884;27;45328;-65
2023/12/02 00:55:01;;;;;;;;;30.25;29.50;;;;;4.87;59.07;100447.91;5069682;28;64934;-65
2023/12/02 00:57:26;;;;;;;;;29.00;25.00;;;;;4.93;58.60;100458.41;5078871;28;45423;-65
2023/12/02 00:59:52;;;;;;;;;34.00;29.00;;;;;4.92;58.66;100466.38;5079265;28;51096;-65
2023/12/02 01:02:17;;;;;;;;;41.25;28.75;;;;;4.84;57.99;100453.22;5066125;28;47049;-65
2023/12/02 01:04:43;;;;;;;;;35.75;30.75;;;;;4.83;58.68;100447.09;5065459;28;45669;-65
2023/12/02 01:07:08;;;;;;;;;30.00;26.50;;;;;4.69;58.34;100441.09;5066593;28;45509;-65
2023/12/02 01:09:33;;;;;;;;;28.50;23.00;;;;;4.71;58.76;100464.88;5073114;28;45309;-65
2023/12/02 01:11:59;;;;;;;;;38.75;29.00;;;;;4.76;58.37;100463.03;5074619;28;46374;-65
2023/12/02 01:14:25;;;;;;;;;26.00;22.50;;;;;4.71;58.37;100455.19;5080719;27;45319;-65
2023/12/02 01:16:51;;;;;;;;;36.00;34.25;;;;;4.75;59.36;100462.16;5080735;27;45367;-65
2023/12/02 01:19:16;;;;;;;;;29.75;26.25;;;;;4.72;59.28;100454.28;5080636;27;45563;-65
2023/12/02 01:21:41;;;;;;;;;30.00;26.75;;;;;4.77;58.79;100456.88;5061543;28;65823;-65
2023/12/02 01:24:07;;;;;;;;;29.50;27.25;;;;;4.88;58.98;100485.81;5075594;28;45652;-65
2023/12/02 01:26:32;;;;;;;;;35.50;27.75;;;;;4.80;58.29;100496.50;5080430;27;45380;-65
2023/12/02 01:28:58;;;;;;;;;36.25;28.50;;;;;4.68;58.79;100479.03;5079374;27;45354;-65
2023/12/02 01:31:23;;;;;;;;;26.75;22.25;;;;;4.61;58.08;100482.59;5080437;27;46130;-65
2023/12/02 01:33:48;;;;;;;;;27.25;20.75;;;;;4.67;57.80;100502.84;5080320;27;45395;-65
2023/12/02 01:36:14;;;;;;;;;25.00;23.50;;;;;4.68;58.05;100491.34;5081126;27;57555;-65
2023/12/02 01:38:39;;;;;;;;;21.25;18.25;;;;;4.56;58.13;100473.88;5071905;28;45645;-65
2023/12/02 01:41:04;;;;;;;;;21.75;19.75;;;;;4.52;58.23;100466.88;5078711;27;47990;-65
2023/12/02 01:43:30;;;;;;;;;21.75;18.75;;;;;4.57;58.25;100486.19;5080183;27;45365;-65
2023/12/02 01:45:56;;;;;;;;;19.25;16.25;;;;;4.65;58.04;100513.44;5079500;27;45298;-65
2023/12/02 01:48:29;;;;;;;;;27.25;23.50;;;;;4.68;57.41;100512.50;5079986;27;45795;-65
2023/12/02 01:50:55;;;;;;;;;31.50;26.50;;;;;4.66;57.96;100519.56;5079894;28;45760;-65
2023/12/02 01:53:20;;;;;;;;;28.50;22.25;;;;;4.59;58.28;100513.47;5080203;27;45567;-65
2023/12/02 01:55:46;;;;;;;;;27.00;26.75;;;;;4.66;58.35;100530.16;5079953;27;45354;-65
2023/12/02 01:58:11;;;;;;;;;36.00;24.25;;;;;4.44;58.00;100514.53;5073532;27;45459;-65
2023/12/02 02:00:37;;;;;;;;;29.25;22.25;;;;;4.51;58.25;100525.91;5058665;28;45343;-65
2023/12/02 02:03:02;;;;;;;;;34.25;27.00;;;;;4.51;57.64;100520.63;5059855;28;45945;-65
2023/12/02 02:05:27;;;;;;;;;21.25;19.50;;;;;4.60;59.08;100539.91;5063999;28;45370;-65
2023/12/02 02:07:53;;;;;;;;;28.25;24.75;;;;;4.41;57.79;100514.56;5073171;28;45560;-65
2023/12/02 02:10:22;;;;;;;;;27.50;24.75;;;;;4.51;57.95;100553.25;5079618;27;46630;-65
2023/12/02 02:12:47;;;;;;;;;33.25;27.50;;;;;4.50;59.04;100543.53;5079583;28;45385;-65
2023/12/02 02:15:13;;;;;;;;;29.00;26.25;;;;;4.26;57.91;100512.97;5078676;28;45495;-65
2023/12/02 02:17:38;;;;;;;;;28.00;27.00;;;;;4.45;58.59;100545.38;5079453;27;45510;-65
2023/12/02 02:20:05;;;;;;;;;35.00;27.50;;;;;4.41;57.93;100548.91;5078993;27;45488;-65
2023/12/02 02:22:30;;;;;;;;;32.75;24.75;;;;;4.51;58.68;100557.63;5079355;27;45745;-65
2023/12/02 02:24:55;;;;;;;;;31.25;27.00;;;;;4.53;58.46;100571.72;5078363;28;45370;-65
2023/12/02 02:27:21;;;;;;;;;34.50;30.25;;;;;4.48;58.41;100569.13;5079487;27;45486;-65
2023/12/02 02:29:46;;;;;;;;;30.50;24.00;;;;;4.45;59.13;100572.66;5064699;28;48297;-65
2023/12/02 02:32:11;;;;;;;;;23.50;21.00;;;;;4.51;59.48;100576.13;5074522;28;45235;-65
2023/12/02 02:34:40;;;;;;;;;32.75;31.00;;;;;4.28;59.26;100524.41;5066892;28;45433;-65
2023/12/02 02:37:05;;;;;;;;;32.00;25.75;;;;;4.43;58.74;100560.38;5068221;28;45446;-65
2023/12/02 02:39:30;;;;;;;;;31.00;25.25;;;;;4.52;58.85;100583.19;5064312;28;45330;-65
2023/12/02 02:41:56;;;;;;;;;27.75;22.00;;;;;4.34;59.04;100557.81;5077767;28;45476;-65
2023/12/02 02:44:21;;;;;;;;;27.75;24.00;;;;;4.46;58.73;100586.78;5079435;27;45646;-65
2023/12/02 02:46:47;;;;;;;;;26.75;17.75;;;;;4.48;58.79;100589.38;5079298;27;46305;-65
2023/12/02 02:49:12;;;;;;;;;31.00;24.00;;;;;4.53;58.99;100593.75;5079123;27;46121;-65
2023/12/02 02:51:37;;;;;;;;;34.25;24.00;;;;;4.43;58.38;100607.94;5079349;27;45345;-65
2023/12/02 02:54:03;;;;;;;;;25.00;23.33;;;;;4.41;58.93;100602.66;5077466;28;62935;-65
2023/12/02 02:56:28;;;;;;;;;30.25;28.00;;;;;4.41;58.89;100591.19;5078694;27;45455;-65
2023/12/02 02:58:53;;;;;;;;;21.25;17.50;;;;;4.35;58.89;100581.56;5073080;27;54994;-65
2023/12/02 03:01:19;;;;;;;;;32.00;25.67;;;;;4.44;58.17;100600.00;5057980;28;73455;-65
2023/12/02 03:03:44;;;;;;;;;25.50;24.25;;;;;4.50;59.24;100595.56;5058378;28;48498;-65
2023/12/02 03:06:11;;;;;;;;;33.75;28.25;;;;;4.42;59.14;100580.63;5063302;28;45417;-65
2023/12/02 03:08:36;;;;;;;;;32.00;27.00;;;;;4.53;59.42;100577.03;5068591;28;45442;-65
2023/12/02 03:11:02;;;;;;;;;28.25;23.25;;;;;4.61;58.99;100588.38;5061533;28;53608;-65
2023/12/02 03:13:28;;;;;;;;;41.75;29.75;;;;;4.70;59.75;100590.91;5076634;28;45448;-66
2023/12/02 03:15:53;;;;;;;;;32.25;30.25;;;;;4.80;59.34;100602.28;5063785;27;45547;-65
2023/12/02 03:18:18;;;;;;;;;33.00;26.50;;;;;4.85;59.39;100603.09;5067024;28;46195;-65
2023/12/02 03:20:44;;;;;;;;;39.25;33.75;;;;;4.89;59.76;100599.53;5075462;28;45313;-65
2023/12/02 03:23:09;;;;;;;;;37.25;31.75;;;;;4.87;59.60;100600.44;5070752;28;45296;-65
2023/12/02 03:25:35;;;;;;;;;40.50;29.25;;;;;4.86;60.08;100601.31;5062070;28;45290;-65
2023/12/02 03:28:00;;;;;;;;;37.00;32.25;;;;;4.80;59.56;100595.22;5077557;28;46453;-65
2023/12/02 03:30:25;;;;;;;;;31.00;20.25;;;;;4.83;60.08;100610.19;5073968;27;45331;-65
2023/12/02 03:32:51;;;;;;;;;34.00;29.00;;;;;4.79;59.25;100614.63;5065142;28;45329;-65
2023/12/02 03:35:16;;;;;;;;;23.50;23.25;;;;;4.77;59.84;100623.47;5062410;28;45511;-65
2023/12/02 03:37:41;;;;;;;;;39.25;34.50;;;;;4.63;59.92;100605.09;5060670;28;55033;-65
2023/12/02 03:40:08;;;;;;;;;33.00;29.00;;;;;4.56;60.04;100598.09;5062789;28;45480;-65
2023/12/02 03:42:33;;;;;;;;;38.50;34.75;;;;;4.63;59.59;100619.19;5069984;28;45384;-65
2023/12/02 03:44:59;;;;;;;;;38.00;33.50;;;;;4.55;59.93;100612.25;5071412;27;46244;-65
2023/12/02 03:47:24;;;;;;;;;35.00;31.25;;;;;4.52;59.39;100610.47;5075152;27;45746;-65
2023/12/02 03:49:49;;;;;;;;;41.50;33.50;;;;;4.59;60.64;100628.06;5074569;28;45924;-65
2023/12/02 03:52:15;;;;;;;;;36.50;26.75;;;;;4.55;60.20;100614.88;5063932;28;45534;-65
2023/12/02 03:54:40;;;;;;;;;35.67;31.67;;;;;4.56;60.10;100616.63;5075996;28;73602;-65
2023/12/02 03:57:05;;;;;;;;;47.50;38.25;;;;;4.60;60.23;100629.78;5061222;28;45436;-65
2023/12/02 03:59:31;;;;;;;;;39.00;30.25;;;;;4.52;59.57;100615.78;5060991;28;60499;-65
2023/12/02 04:01:57;;;;;;;;;36.75;31.75;;;;;4.56;60.00;100627.19;5061948;28;45377;-65
2023/12/02 04:04:22;;;;;;;;;28.25;25.25;;;;;4.61;59.75;100625.38;5070377;28;45399;-65
2023/12/02 04:06:48;;;;;;;;;35.00;32.00;;;;;4.57;59.11;100618.38;5076411;27;45625;-65
2023/12/02 04:09:13;;;;;;;;;31.25;28.25;;;;;4.65;59.16;100642.97;5071774;28;45296;-65
2023/12/02 04:11:38;;;;;;;;;35.00;30.00;;;;;4.63;60.04;100652.69;5081594;27;45390;-65
2023/12/02 04:14:04;;;;;;;;;42.50;33.25;;;;;4.55;59.10;100641.31;5082988;27;66583;-65
2023/12/02 04:16:30;;;;;;;;;40.25;31.50;;;;;4.60;59.79;100660.66;5067186;27;46340;-65
2023/12/02 04:18:55;;;;;;;;;37.50;25.25;;;;;4.56;59.37;100658.91;5075346;28;45272;-65
2023/12/02 04:21:21;;;;;;;;;28.75;24.50;;;;;4.43;59.37;100645.81;5081724;27;45371;-65
2023/12/02 04:23:47;;;;;;;;;31.75;24.25;;;;;4.45;59.85;100649.31;5080769;27;45503;-65
2023/12/02 04:26:12;;;;;;;;;33.50;26.50;;;;;4.36;59.88;100633.56;5080666;27;52804;-65
2023/12/02 04:28:37;;;;;;;;;39.00;31.25;;;;;4.48;59.52;100664.28;5080955;28;55425;-65
2023/12/02 04:31:02;;;;;;;;;36.00;29.25;;;;;4.48;59.54;100674.84;5061768;28;52452;-65
2023/12/02 04:33:28;;;;;;;;;31.25;25.75;;;;;4.39;60.32;100673.19;5069869;28;45355;-65
2023/12/02 04:35:54;;;;;;;;;38.75;30.75;;;;;4.38;59.41;100670.53;5074555;27;47221;-65
2023/12/02 04:38:19;;;;;;;;;29.75;27.25;;;;;4.38;59.74;100684.63;5060644;28;45462;-65
2023/12/02 04:40:44;;;;;;;;;34.75;27.00;;;;;4.37;60.09;100689.91;5059884;28;52730;-65
2023/12/02 04:43:10;;;;;;;;;37.00;32.25;;;;;4.37;59.47;100680.22;5060962;28;45480;-65
2023/12/02 04:45:35;;;;;;;;;34.00;28.00;;;;;4.38;60.38;100678.47;5063002;28;46742;-65
2023/12/02 04:48:00;;;;;;;;;42.00;28.75;;;;;4.37;59.90;100682.84;5059891;28;45367;-65
2023/12/02 04:50:26;;;;;;;;;36.75;29.75;;;;;4.45;60.30;100694.25;5069353;28;45557;-65
2023/12/02 04:52:51;;;;;;;;;38.50;26.75;;;;;4.37;60.60;100689.91;5059384;28;45440;-65
2023/12/02 04:55:16;;;;;;;;;37.25;28.50;;;;;4.47;59.79;100698.66;5061724;28;45397;-65
2023/12/02 04:57:42;;;;;;;;;43.50;29.75;;;;;4.48;60.21;100703.94;5080378;28;48330;-65
2023/12/02 05:00:13;;;;;;;;;37.00;28.25;;;;;4.49;60.23;100705.66;5070611;28;45260;-65
2023/12/02 05:02:41;;;;;;;;;35.50;31.00;;;;;4.48;60.42;100709.22;5059931;28;45711;-65
2023/12/02 05:05:07;;;;;;;;;40.50;32.00;;;;;4.52;60.04;100718.88;5065744;28;46073;-65
2023/12/02 05:07:32;;;;;;;;;49.25;36.75;;;;;4.58;60.42;100725.91;5059788;28;45311;-65
2023/12/02 05:09:58;;;;;;;;;38.50;28.75;;;;;4.58;60.39;100737.34;5059850;28;45653;-65
2023/12/02 05:12:23;;;;;;;;;38.00;34.00;;;;;4.53;60.54;100727.69;5059284;28;45622;-65
2023/12/02 05:14:48;;;;;;;;;43.75;31.25;;;;;4.59;60.96;100741.75;5070990;28;46166;-65
2023/12/02 05:17:14;;;;;;;;;38.00;29.25;;;;;4.57;60.36;100740.00;5061247;27;45386;-65
2023/12/02 05:19:39;;;;;;;;;37.00;31.75;;;;;4.47;60.74;100730.38;5060846;28;45244;-65
2023/12/02 05:22:04;;;;;;;;;43.75;34.50;;;;;4.48;61.38;100740.03;5078040;28;45367;-65
2023/12/02 05:24:30;;;;;;;;;32.00;25.75;;;;;4.52;61.08;100747.94;5076529;27;45507;-65
2023/12/02 05:26:57;;;;;;;;;33.00;23.75;;;;;4.48;61.47;100748.88;5060081;28;45430;-65
2023/12/02 05:29:22;;;;;;;;;43.00;32.75;;;;;4.53;60.97;100776.16;5075965;28;45357;-65
2023/12/02 05:31:48;;;;;;;;;35.00;30.75;;;;;4.46;61.04;100763.88;5063656;27;45830;-65
2023/12/02 05:34:14;;;;;;;;;39.25;30.00;;;;;4.43;61.93;100759.47;5063628;28;45700;-65
2023/12/02 05:36:39;;;;;;;;;38.25;31.25;;;;;4.36;61.32;100764.78;5066928;28;45549;-65
2023/12/02 05:39:05;;;;;;;;;38.25;33.75;;;;;4.38;61.48;100773.63;5065771;27;45456;-65
2023/12/02 05:41:30;;;;;;;;;33.00;28.00;;;;;4.42;62.26;100781.50;5059367;28;45404;-65
2023/12/02 05:43:56;;;;;;;;;32.00;28.75;;;;;4.26;61.07;100767.50;5059111;28;46353;-65
2023/12/02 05:46:21;;;;;;;;;38.25;28.25;;;;;4.30;61.32;100786.00;5079175;27;45831;-65
2023/12/02 05:48:47;;;;;;;;;40.00;33.00;;;;;4.28;60.80;100793.94;5064361;27;45507;-65
2023/12/02 05:51:13;;;;;;;;;41.50;36.25;;;;;4.25;62.13;100802.75;5060584;28;45570;-65
2023/12/02 05:53:39;;;;;;;;;47.00;34.00;;;;;4.20;61.94;100798.38;5059597;28;46329;-65
2023/12/02 05:56:05;;;;;;;;;36.75;33.75;;;;;4.22;62.60;100810.69;5081322;27;45500;-65
2023/12/02 05:58:31;;;;;;;;;42.25;33.00;;;;;4.14;61.76;100806.31;5080207;27;45497;-65
2023/12/02 06:00:56;;;;;;;;;45.25;37.25;;;;;4.15;61.58;100822.19;5078926;28;48396;-65
2023/12/02 06:03:22;;;;;;;;;31.50;26.75;;;;;3.99;61.57;100810.81;5078906;28;67074;-65
2023/12/02 06:05:47;;;;;;;;;33.00;30.25;;;;;4.00;61.89;100831.03;5073665;28;45538;-65
2023/12/02 06:08:12;;;;;;;;;42.00;32.00;;;;;3.86;62.55;100824.94;5058710;28;62282;-65
2023/12/02 06:10:38;;;;;;;;;29.25;26.00;;;;;3.92;62.90;100835.47;5059331;28;45532;-65
2023/12/02 06:13:03;;;;;;;;;38.50;33.00;;;;;3.91;62.23;100833.72;5059357;28;46061;-65
2023/12/02 06:15:28;;;;;;;;;27.25;24.00;;;;;3.93;62.86;100841.66;5058649;28;64636;-65
2023/12/02 06:17:57;;;;;;;;;29.33;22.00;;;;;3.92;62.52;100850.44;5078638;27;60217;-65
2023/12/02 06:20:26;;;;;;;;;34.00;28.50;;;;;3.83;62.42;100846.09;5073356;27;45528;-65
2023/12/02 06:22:52;;;;;;;;;24.00;20.25;;;;;3.88;62.16;100862.78;5074142;28;48436;-65
2023/12/02 06:25:17;;;;;;;;;36.75;29.50;;;;;3.87;62.75;100861.03;5079385;28;45799;-65
2023/12/02 06:27:43;;;;;;;;;45.75;35.00;;;;;3.80;62.62;100852.25;5078181;27;45547;-65
2023/12/02 06:30:09;;;;;;;;;43.25;33.75;;;;;3.85;62.71;100876.88;5060732;27;45525;-65
2023/12/02 06:32:34;;;;;;;;;48.50;38.25;;;;;3.71;62.83;100869.00;5058505;28;45405;-65
2023/12/02 06:35:00;;;;;;;;;36.00;29.75;;;;;3.67;62.65;100867.22;5059123;28;45437;-65
2023/12/02 06:37:25;;;;;;;;;41.00;33.75;;;;;3.69;63.38;100869.84;5064016;28;52616;-65
2023/12/02 06:39:50;;;;;;;;;42.25;33.25;;;;;3.70;63.11;100864.56;5077283;28;45389;-65
2023/12/02 06:42:16;;;;;;;;;42.00;33.50;;;;;3.59;63.27;100836.44;5076914;28;47287;-65
2023/12/02 06:44:42;;;;;;;;;41.00;35.50;;;;;3.82;62.70;100883.91;5063583;27;45361;-65
2023/12/02 06:47:08;;;;;;;;;38.50;36.75;;;;;3.90;63.22;100890.06;5063689;28;45502;-65
2023/12/02 06:49:33;;;;;;;;;45.75;33.00;;;;;3.85;62.98;100881.28;5058572;28;45613;-65
2023/12/02 06:51:58;;;;;;;;;35.75;33.00;;;;;3.94;63.39;100893.56;5058735;28;46860;-65
2023/12/02 06:54:24;;;;;;;;;39.75;36.00;;;;;3.85;63.36;100879.50;5065995;28;45338;-65
2023/12/02 06:56:49;;;;;;;;;37.25;33.00;;;;;3.82;63.08;100878.63;5083775;27;45267;-65
2023/12/02 06:59:15;;;;;;;;;39.00;32.50;;;;;3.90;62.35;100895.34;5065977;27;45761;-65
2023/12/02 07:01:40;;;;;;;;;41.75;34.00;;;;;3.81;63.64;100882.16;5066086;27;45481;-65
2023/12/02 07:04:06;;;;;;;;;44.25;37.00;;;;;3.87;62.94;100900.63;5064988;28;45402;-65
2023/12/02 07:06:32;;;;;;;;;44.25;38.75;;;;;3.86;63.30;100912.97;5063811;28;45464;-65
2023/12/02 07:08:59;;;;;;;;;37.25;31.25;;;;;3.72;63.42;100893.63;5060616;27;45795;-65
2023/12/02 07:11:24;;;;;;;;;37.00;33.75;;;;;3.74;63.42;100909.47;5089332;27;46918;-65
2023/12/02 07:13:50;;;;;;;;;41.25;31.00;;;;;3.84;63.73;100921.75;5078844;27;45388;-65
2023/12/02 07:16:16;;;;;;;;;39.00;31.00;;;;;3.66;63.73;100891.88;5072874;27;45552;-65
2023/12/02 07:18:41;;;;;;;;;42.00;32.75;;;;;3.85;63.41;100926.16;5068980;27;45547;-65
2023/12/02 07:21:07;;;;;;;;;40.25;38.00;;;;;3.75;62.74;100914.75;5057036;28;47877;-65
2023/12/02 07:23:33;;;;;;;;;33.75;30.75;;;;;3.62;63.30;100889.25;5070312;27;45710;-65
2023/12/02 07:25:59;;;;;;;;;40.00;35.75;;;;;3.52;62.86;100883.09;5065386;28;45395;-66
2023/12/02 07:28:25;;;;;;;;;46.25;36.50;;;;;3.63;63.29;100910.34;5061623;28;45378;-65
2023/12/02 07:30:51;;;;;;;;;36.25;31.75;;;;;3.79;63.33;100932.34;5070602;28;46134;-66
2023/12/02 07:33:18;;;;;;;;;34.25;32.50;;;;;3.80;63.58;100928.81;5067854;28;45496;-66
2023/12/02 07:35:44;;;;;;;;;39.75;34.25;;;;;3.81;63.49;100929.69;5058368;28;45420;-66
2023/12/02 07:38:09;;;;;;;;;38.75;36.50;;;;;3.70;63.96;100914.75;5067977;28;45354;-66
2023/12/02 07:40:35;;;;;;;;;47.50;40.50;;;;;3.73;63.54;100920.94;5061748;27;45345;-66
2023/12/02 07:43:01;;;;;;;;;42.25;34.25;;;;;3.80;63.03;100942.00;5063860;28;45451;-67
2023/12/02 07:45:26;;;;;;;;;47.75;37.00;;;;;3.61;63.38;100921.78;5058434;28;45473;-67
2023/12/02 07:47:51;;;;;;;;;44.25;39.00;;;;;3.60;63.37;100923.56;5073400;28;45627;-66
2023/12/02 07:50:17;;;;;;;;;37.25;33.00;;;;;3.83;63.65;100949.06;5068473;28;47231;-66
2023/12/02 07:52:43;;;;;;;;;44.50;36.75;;;;;3.74;63.42;100938.50;5058189;28;45394;-66
2023/12/02 07:55:08;;;;;;;;;39.00;32.00;;;;;3.71;63.08;100932.34;5073495;28;45434;-66
2023/12/02 07:57:33;;;;;;;;;33.50;31.50;;;;;3.76;63.34;100932.34;5056570;28;45656;-67
2023/12/02 07:59:59;;;;;;;;;35.00;31.25;;;;;3.65;63.48;100924.44;5069806;28;45298;-66
2023/12/02 08:02:24;;;;;;;;;40.00;35.50;;;;;3.74;63.01;100951.72;5067373;28;45405;-66
2023/12/02 08:04:50;;;;;;;;;42.50;35.25;;;;;3.88;62.86;100984.28;5064162;28;45555;-66
2023/12/02 08:07:15;;;;;;;;;50.00;38.50;;;;;3.85;62.86;100976.34;5078101;27;45617;-66
2023/12/02 08:09:41;;;;;;;;;40.00;35.75;;;;;3.91;63.06;100986.91;5072803;28;46827;-66
2023/12/02 08:12:06;;;;;;;;;41.25;32.00;;;;;3.72;63.47;100964.91;5067259;28;45841;-66
2023/12/02 08:14:32;;;;;;;;;43.75;35.50;;;;;3.83;63.34;100988.69;5068835;28;45472;-66
2023/12/02 08:16:57;;;;;;;;;45.75;37.75;;;;;3.70;63.83;100958.75;5072077;28;45435;-66
2023/12/02 08:19:22;;;;;;;;;43.50;33.00;;;;;3.81;63.35;100979.84;5061810;28;45495;-66
2023/12/02 08:21:48;;;;;;;;;35.75;32.25;;;;;3.94;62.95;101002.72;5061240;28;45505;-66
2023/12/02 08:24:13;;;;;;;;;39.50;37.25;;;;;3.75;63.55;100967.56;5067387;28;45455;-66
2023/12/02 08:26:38;;;;;;;;;40.75;34.00;;;;;3.82;63.71;100993.06;5068344;27;45638;-66
2023/12/02 08:29:04;;;;;;;;;43.25;39.25;;;;;3.81;63.36;100995.69;5068942;28;46577;-65
2023/12/02 08:31:30;;;;;;;;;42.50;35.75;;;;;3.62;63.34;100979.88;5073759;28;45519;-65
2023/12/02 08:33:55;;;;;;;;;40.50;26.25;;;;;3.68;62.85;100993.06;5070847;27;45611;-67
2023/12/02 08:36:21;;;;;;;;;43.75;40.50;;;;;3.71;63.33;100995.72;5067328;27;45434;-68
2023/12/02 08:38:46;;;;;;;;;54.00;42.75;;;;;3.88;64.04;101027.41;5076546;28;45405;-68
2023/12/02 08:41:11;;;;;;;;;49.00;38.75;;;;;3.67;63.35;101001.88;5069089;28;45318;-67
2023/12/02 08:43:37;;;;;;;;;38.25;33.00;;;;;3.71;63.44;101029.19;5067154;28;45326;-67
2023/12/02 08:46:02;;;;;;;;;37.50;33.50;;;;;3.61;63.30;101009.81;5068034;27;45550;-67
2023/12/02 08:48:28;;;;;;;;;48.25;36.25;;;;;3.62;63.56;101008.91;5076303;28;47156;-68
2023/12/02 08:50:53;;;;;;;;;42.50;33.50;;;;;3.78;63.52;101037.97;5061448;28;45362;-67
2023/12/02 08:53:19;;;;;;;;;50.00;33.75;;;;;3.66;63.20;101020.38;5070212;28;45252;-67
2023/12/02 08:55:44;;;;;;;;;46.75;37.50;;;;;3.83;63.37;101054.69;5076443;28;45286;-66
2023/12/02 08:58:10;;;;;;;;;49.75;39.75;;;;;3.70;63.64;101025.63;5060403;27;45544;-67
2023/12/02 09:00:35;;;;;;;;;40.75;35.50;;;;;3.70;63.54;101030.03;5063624;28;45489;-65
2023/12/02 09:03:00;;;;;;;;;45.25;37.75;;;;;3.82;64.07;101055.56;5073866;28;45314;-65
2023/12/02 09:05:26;;;;;;;;;36.00;32.50;;;;;3.71;63.84;101043.25;5072435;28;45468;-65
2023/12/02 09:07:51;;;;;;;;;39.75;34.25;;;;;3.94;63.64;101092.53;5074517;27;46441;-65
2023/12/02 09:10:18;;;;;;;;;46.50;37.00;;;;;3.73;64.63;101052.94;5060894;28;45587;-65
2023/12/02 09:12:46;;;;;;;;;51.00;38.00;;;;;3.64;63.53;101053.78;5072867;28;45674;-69
2023/12/02 09:15:14;;;;;;;;;48.00;41.00;;;;;3.89;63.88;101094.31;5060567;28;45255;-64
2023/12/02 09:18:04;;;;;;;;;49.25;40.25;;;;;3.86;63.99;101100.47;5071360;28;46392;-64
2023/12/02 09:20:46;;;;;;;;;48.50;39.75;;;;;3.88;64.30;101105.75;5064886;28;45712;-65
2023/12/02 09:23:13;;;;;;;;;40.75;36.25;;;;;3.58;63.68;101078.44;5076066;28;45332;-64
2023/12/02 09:25:40;;;;;;;;;45.25;40.00;;;;;3.86;64.77;101115.44;5075392;28;45417;-65
2023/12/02 09:28:05;;;;;;;;;57.00;41.00;;;;;3.90;63.73;101119.84;5077741;28;46831;-65
2023/12/02 09:30:34;;;;;;;;;47.33;37.33;;;;;3.69;64.33;101087.25;5061346;27;46065;-65
2023/12/02 09:33:00;;;;;;;;;48.50;41.25;;;;;3.85;64.33;101106.63;5093858;27;45395;-65
2023/12/02 09:35:26;;;;;;;;;45.75;37.50;;;;;3.77;63.91;101091.66;5073896;27;45434;-65
2023/12/02 09:37:52;;;;;;;;;49.75;41.25;;;;;4.01;63.73;101128.66;5068479;28;46033;-65
2023/12/02 09:40:23;;;;;;;;;38.25;34.00;;;;;4.00;64.03;101126.88;5073116;28;45474;-65
2023/12/02 09:43:13;;;;;;;;;49.75;40.50;;;;;4.05;63.46;101135.69;5059906;28;45350;-65
2023/12/02 09:45:58;;;;;;;;;49.50;37.25;;;;;4.02;63.78;101127.75;5059897;28;45401;-64
2023/12/02 09:48:24;;;;;;;;;46.25;40.75;;;;;3.79;64.02;101092.53;5061791;28;45473;-64
2023/12/02 09:51:03;;;;;;;;;50.50;37.75;;;;;3.84;64.37;101098.69;5066169;27;45779;-65
2023/12/02 09:53:40;;;;;;;;;49.50;37.75;;;;;3.80;63.88;101099.59;5060171;28;45512;-65
2023/12/02 09:56:19;;;;;;;;;50.25;36.75;;;;;4.01;63.90;101131.31;5059179;28;45337;-65
2023/12/02 09:58:45;;;;;;;;;48.75;38.00;;;;;3.99;64.01;101135.72;5066753;28;48252;-64
2023/12/02 10:01:17;;;;;;;;;48.00;40.00;;;;;4.00;64.14;101147.16;5065491;27;45961;-65
2023/12/02 10:04:00;;;;;;;;;43.50;37.25;;;;;4.08;64.03;101151.56;5071328;28;45516;-65
2023/12/02 10:06:47;;;;;;;;;48.25;37.50;;;;;4.11;63.93;101153.34;5078935;28;45440;-65
2023/12/02 10:09:28;;;;;;;;;50.25;38.00;;;;;4.09;64.34;101157.72;5062657;27;45432;-65
2023/12/02 10:12:12;;;;;;;;;51.00;41.75;;;;;4.02;64.19;101155.94;5059469;28;45708;-65
2023/12/02 10:14:40;;;;;;;;;47.50;41.00;;;;;3.87;63.46;101133.91;5069669;27;45555;-65
2023/12/02 10:17:10;;;;;;;;;56.00;41.50;;;;;3.88;63.89;101133.03;5059585;28;45293;-65
2023/12/02 10:19:41;;;;;;;;;49.75;40.75;;;;;3.89;63.71;101129.53;5058031;28;47382;-65
2023/12/02 10:22:10;;;;;;;;;51.50;42.25;;;;;3.85;64.25;101113.69;5058693;28;45765;-65
2023/12/02 10:24:59;;;;;;;;;47.25;40.75;;;;;3.92;62.92;101122.50;5062573;28;45441;-65
2023/12/02 10:27:25;;;;;;;;;42.75;40.00;;;;;4.03;63.80;101131.31;5059180;28;45294;-65
2023/12/02 10:30:03;;;;;;;;;47.50;36.25;;;;;4.23;64.31;101149.81;5059109;28;46502;-65
2023/12/02 10:32:48;;;;;;;;;48.25;39.75;;;;;4.32;63.73;101156.84;5059243;28;45841;-64
2023/12/02 10:35:18;;;;;;;;;46.50;40.00;;;;;4.32;63.25;101141.00;5062566;28;45531;-65
2023/12/02 10:37:44;;;;;;;;;42.00;37.50;;;;;4.31;64.12;101133.94;5070937;28;45322;-65
2023/12/02 10:40:12;;;;;;;;;43.25;39.50;;;;;4.13;63.28;101097.84;5060195;27;45524;-65
2023/12/02 10:43:02;;;;;;;;;42.25;38.50;;;;;4.48;63.02;101166.56;5057639;28;45417;-65
2023/12/02 10:45:29;;;;;;;;;49.75;39.25;;;;;4.27;62.63;101130.41;5067009;27;45426;-65
2023/12/02 10:47:55;;;;;;;;;42.75;34.75;;;;;4.50;62.20;101162.13;5059041;28;45296;-65
2023/12/02 10:50:22;;;;;;;;;47.00;38.50;;;;;4.37;62.95;101137.47;5058968;28;45300;-65
2023/12/02 10:53:00;;;;;;;;;41.50;37.25;;;;;4.61;62.51;101170.03;5074598;27;45789;-64
2023/12/02 10:55:25;;;;;;;;;49.00;37.75;;;;;4.35;62.29;101110.16;5069406;28;45386;-65
2023/12/02 10:57:52;;;;;;;;;35.00;32.00;;;;;4.39;62.76;101109.28;5064709;27;45359;-65
2023/12/02 11:00:19;;;;;;;;;39.75;30.50;;;;;4.48;62.25;101126.91;5067683;28;46313;-65
2023/12/02 11:03:02;;;;;;;;;47.25;32.50;;;;;4.59;62.42;101135.69;5058726;28;45311;-65
2023/12/02 11:05:36;;;;;;;;;43.25;35.00;;;;;4.85;61.79;101174.44;5068932;28;45354;-65
2023/12/02 11:08:10;;;;;;;;;44.00;36.25;;;;;4.64;62.35;101131.28;5058776;28;45280;-65
2023/12/02 11:10:44;;;;;;;;;44.75;36.25;;;;;4.63;62.04;101118.94;5057937;28;47961;-65
2023/12/02 11:13:20;;;;;;;;;39.75;33.00;;;;;4.81;61.32;101149.75;5062254;27;45320;-65
2023/12/02 11:16:34;;;;;;;;;44.25;36.25;;;;;4.89;61.31;101164.72;5067683;27;45457;-66